Latest Weather Observations for Rabbit Flat

IDD60801

Issued at 10:35 am CST Wednesday 26 November 2014 (issued every 30 minutes, with the page automatically refreshed every 10 minutes)

About weather observations | Map of weather stations | Latest weather observations for NT | Other Formats
Station Details ID: 015666 Name: RABBIT FLAT Lat: -20.18 Lon: 130.01 Height: 340.0 m
Data from the previous 72 hours. | See also: Recent months at Rabbit Flat
Date/Time
CST
Temp
°C
App
Temp
°C
Dew
Point
Rel
Hum
%
Delta-T
°C
Wind Press
QNH
hPa
Press
MSL
hPa
Rain
since 9 am
mm
Dir
 
Spd
km/h
Gust
km/h
Spd
kts
Gust
kts
26/10:30am 30.8 30.2 17.5 45 8.6 E 17 26 9 14 1013.1 - 0.0
26/10:00am 31.0 31.0 18.1 46 8.4 E 15 26 8 14 1013.3 - 0.0
26/09:30am 29.9 30.3 18.9 51 7.2 E 15 24 8 13 1013.5 - 0.0
26/09:00am 28.3 29.5 19.8 60 5.6 E 13 20 7 11 1013.8 - 0.0
26/08:30am 27.2 28.4 19.8 64 4.9 ESE 13 19 7 10 1013.7 - 0.0
26/08:00am 26.6 27.8 19.9 66 4.4 E 13 20 7 11 1013.7 - 0.0
26/07:30am 25.6 27.3 20.1 71 3.6 E 11 15 6 8 1013.6 - 0.0
26/07:00am 23.9 26.7 20.9 83 2.0 SE 7 11 4 6 1013.2 - 0.0
26/06:30am 23.0 25.9 21.0 88 1.3 SSE 7 9 4 5 1012.8 - 0.0
26/06:00am 22.8 25.5 20.7 88 1.4 SSE 7 9 4 5 1012.1 - 0.0
26/05:30am 22.9 25.4 20.3 85 1.7 E 7 9 4 5 1011.6 - 0.0
26/05:00am 23.0 25.5 20.3 85 1.8 ESE 7 7 4 4 1011.4 - 0.0
26/04:30am 23.0 25.7 20.3 85 1.8 SSE 6 7 3 4 1011.2 - 0.0
26/04:00am 23.1 25.8 20.7 86 1.6 SSE 7 9 4 5 1011.2 - 0.0
26/03:30am 23.5 26.0 20.3 82 2.1 ESE 7 9 4 5 1011.0 - 0.0
26/03:00am 23.4 26.3 21.0 86 1.6 SSE 7 9 4 5 1011.0 - 0.0
26/02:30am 24.0 26.1 20.2 79 2.5 SE 9 11 5 6 1010.9 - 0.0
26/02:00am 24.2 26.6 20.1 78 2.7 SSE 7 11 4 6 1011.1 - 0.0
26/01:00am 25.4 25.8 18.9 67 4.2 NE 15 22 8 12 1011.4 - 0.0
26/12:30am 25.6 26.4 19.1 67 4.2 NE 13 20 7 11 1011.7 - 0.0
26/12:00am 25.9 27.4 20.5 72 3.6 NE 13 20 7 11 1012.2 - 0.0
 
Date/Time
CST
Temp
°C
App
Temp
°C
Dew
Point
Rel
Hum
%
Delta-T
°C
Wind Press
QNH
hPa
Press
MSL
hPa
Rain
since 9 am
mm
Dir
 
Spd
km/h
Gust
km/h
Spd
kts
Gust
kts
25/11:30pm 25.8 28.1 21.3 76 3.0 ESE 11 17 6 9 1012.1 - 0.0
25/11:00pm 25.4 28.9 22.2 82 2.2 S 7 11 4 6 1011.7 - 0.0
25/10:30pm 25.6 29.4 22.7 84 2.0 SSE 7 11 4 6 1011.3 - 0.0
25/10:00pm 25.7 29.4 22.3 81 2.3 NNE 6 9 3 5 1011.2 - 0.0
25/09:30pm 25.6 28.0 21.6 78 2.7 N 11 15 6 8 1011.0 - 0.0
25/09:00pm 24.8 27.3 21.7 83 2.1 NNE 11 13 6 7 1010.7 1008.2 0.0
25/08:30pm 24.4 25.5 20.5 79 2.6 E 15 20 8 11 1010.5 - 0.0
25/08:00pm 24.9 23.5 20.5 76 2.9 ESE 28 44 15 24 1010.4 - 0.0
25/07:30pm 26.5 26.6 20.3 68 4.1 E 20 39 11 21 1009.1 - 0.0
25/07:00pm 30.5 28.9 19.1 50 7.5 ESE 26 43 14 23 1008.8 - 0.0
25/06:30pm 33.9 33.4 16.9 36 11.0 E 15 24 8 13 1008.0 - 0.0
25/06:00pm 34.2 33.4 19.2 41 10.0 E 22 44 12 24 1007.2 1004.6 0.0
25/05:30pm 37.1 37.0 20.0 37 11.6 SE 20 30 11 16 1007.0 - 0.0
25/05:00pm 38.6 39.0 20.7 35 12.3 SE 19 28 10 15 1007.0 - 0.0
25/04:30pm 38.2 38.4 20.2 35 12.3 SSE 19 32 10 17 1007.3 - 0.0
25/04:00pm 37.9 37.8 19.6 34 12.4 SSE 19 28 10 15 1007.3 - 0.0
25/03:30pm 38.1 38.1 20.1 35 12.3 SSE 20 35 11 19 1007.5 - 0.0
25/03:00pm 37.0 36.3 18.2 33 12.5 ESE 19 28 10 15 1008.0 1005.5 0.0
25/02:30pm 37.7 37.2 17.9 31 13.1 E 17 35 9 19 1008.5 - 0.0
25/02:00pm 37.0 35.6 16.5 29 13.3 SE 19 30 10 16 1009.3 - 0.0
25/01:30pm 36.7 34.1 15.0 27 13.8 ESE 22 33 12 18 1009.8 - 0.0
25/01:00pm 36.2 34.1 15.3 28 13.3 ESE 20 28 11 15 1010.3 - 0.0
25/12:30pm 35.8 34.6 16.0 30 12.7 ENE 17 28 9 15 1010.9 - 0.0
25/12:00pm 34.5 34.2 16.5 34 11.6 E 13 22 7 12 1011.4 1008.9 0.0
25/11:30am 33.3 33.3 16.2 36 10.9 ESE 11 17 6 9 1011.9 - 0.0
25/11:00am 32.5 31.9 15.7 36 10.6 ESE 13 20 7 11 1012.0 - 0.0
25/10:30am 31.7 30.8 15.9 38 10.0 ESE 15 20 8 11 1012.3 - 0.0
25/10:00am 31.2 29.3 15.2 38 10.0 SE 19 26 10 14 1012.5 - 0.0
25/09:30am 30.9 29.3 15.0 38 9.9 SSE 17 26 9 14 1012.3 - 0.0
25/09:00am 29.3 27.4 15.7 43 8.5 S 20 28 11 15 1012.5 1010.0 0.0
25/08:30am 28.4 26.1 15.7 46 7.9 S 22 33 12 18 1012.8 - 0.0
25/08:00am 27.0 24.4 15.9 50 6.9 S 24 32 13 17 1012.6 - 0.0
25/07:30am 26.8 24.2 15.8 51 6.8 S 24 33 13 18 1012.8 - 0.0
25/07:00am 25.2 22.9 15.8 56 5.8 S 22 30 12 16 1012.4 - 0.0
25/06:30am 24.5 22.4 16.3 60 5.1 S 22 30 12 16 1012.1 - 0.0
25/06:00am 24.3 22.5 15.9 59 5.2 S 20 28 11 15 1012.2 1009.7 0.0
25/05:30am 24.5 22.6 15.7 58 5.4 S 20 30 11 16 1012.1 - 0.0
25/05:00am 24.7 22.1 16.0 58 5.4 S 24 32 13 17 1012.0 - 0.0
25/04:30am 24.6 23.1 16.8 62 4.9 S 20 28 11 15 1011.5 - 0.0
25/04:00am 24.6 23.3 16.8 62 4.9 S 19 24 10 13 1011.2 - 0.0
25/03:30am 25.3 24.0 16.7 59 5.4 S 19 24 10 13 1011.5 - 0.0
25/03:00am 25.4 24.4 17.5 61 5.0 S 19 24 10 13 1011.6 - 0.0
25/02:30am 25.3 25.3 18.1 64 4.6 S 15 20 8 11 1011.7 - 0.0
25/02:00am 25.7 24.7 17.5 60 5.2 S 19 24 10 13 1011.5 - 0.0
25/01:30am 25.9 26.1 18.6 64 4.7 S 15 20 8 11 1011.6 - 0.0
25/01:00am 26.2 27.3 20.5 71 3.8 S 15 20 8 11 1011.8 - 0.0
25/12:30am 25.2 26.1 22.6 85 1.8 SSW 22 30 12 16 1011.6 - 0.0
25/12:00am 24.5 29.2 23.3 93 0.8 WSW 4 6 2 3 1010.8 1008.3 0.0
 
Date/Time
CST
Temp
°C
App
Temp
°C
Dew
Point
Rel
Hum
%
Delta-T
°C
Wind Press
QNH
hPa
Press
MSL
hPa
Rain
since 9 am
mm
Dir
 
Spd
km/h
Gust
km/h
Spd
kts
Gust
kts
24/11:30pm 25.2 29.6 23.5 90 1.2 NW 6 7 3 4 1011.0 - 0.0
24/11:00pm 25.8 30.6 23.5 87 1.6 NW 4 6 2 3 1010.8 - 0.0
24/10:30pm 26.2 30.2 22.7 81 2.4 NW 6 6 3 3 1010.6 - 0.0
24/10:00pm 26.3 30.0 22.5 79 2.6 NNW 7 9 4 5 1010.5 - 0.0
24/09:30pm 27.0 31.7 22.6 77 3.0 NNE 2 6 1 3 1010.2 - 0.0
24/09:00pm 27.8 31.3 22.1 71 3.9 ENE 7 9 4 5 1009.8 - 0.0
24/08:30pm 28.8 31.6 20.9 62 5.3 E 7 9 4 5 1009.5 - 0.0
24/08:00pm 28.6 32.3 22.5 69 4.2 SE 7 9 4 5 1009.3 - 0.0
24/07:30pm 29.9 32.1 19.3 53 7.0 SSE 6 7 3 4 1009.0 - 0.0
24/07:00pm 31.1 33.5 19.7 50 7.6 SSE 6 7 3 4 1008.7 - 0.0
24/06:30pm 31.8 33.1 17.6 42 9.2 ESE 7 11 4 6 1008.5 - 0.0
24/06:00pm 32.6 33.7 17.1 39 10.0 SSE 7 13 4 7 1008.4 - 0.0
24/05:30pm 32.1 33.3 17.4 41 9.5 ESE 7 13 4 7 1008.5 - 0.0
24/05:00pm 32.3 33.0 17.1 40 9.8 E 9 13 5 7 1008.7 - 0.0
24/04:30pm 32.7 33.4 17.0 39 10.1 E 9 15 5 8 1008.9 - 0.0
24/04:00pm 32.4 33.0 17.6 41 9.6 E 11 17 6 9 1009.2 - 0.0
24/03:30pm 31.8 32.4 18.6 45 8.7 E 13 19 7 10 1009.7 - 0.0
24/03:00pm 31.2 32.8 19.1 48 8.0 SE 9 13 5 7 1010.4 1007.9 0.0
24/02:30pm 30.2 32.7 19.8 53 6.9 NNW 6 11 3 6 1010.5 - 0.0
24/02:00pm 29.7 32.6 19.8 55 6.6 S 4 7 2 4 1011.0 - 0.0
24/01:30pm 29.1 32.8 22.2 66 4.7 W 6 9 3 5 1011.5 - 0.0
24/01:00pm 30.0 32.0 19.2 52 7.1 W 7 9 4 5 1012.1 - 0.0
24/12:30pm 29.8 31.3 18.8 51 7.2 W 9 13 5 7 1012.4 - 0.0
24/12:00pm 29.8 30.7 18.4 50 7.4 W 11 17 6 9 1012.8 1010.2 0.0
24/11:30am 29.9 30.2 18.0 48 7.7 WNW 13 20 7 11 1013.3 - 0.0
24/11:00am 29.7 30.8 19.6 54 6.7 WNW 13 17 7 9 1013.6 - 0.0
24/10:30am 28.7 30.2 19.8 58 5.9 NW 11 15 6 8 1013.8 - 0.0
24/10:00am 26.9 28.9 20.8 69 4.1 NW 11 15 6 8 1013.8 - 0.0
24/09:30am 25.9 27.0 21.3 76 3.1 NW 17 20 9 11 1013.7 - 0.0
24/09:00am 25.3 29.4 20.8 76 3.0 CALM 0 0 0 0 1013.4 1010.9 11.8
24/08:30am 25.1 28.5 20.2 74 3.2 S 2 7 1 4 1012.9 - 11.8
24/08:00am 24.8 27.5 20.6 77 2.8 SSE 7 11 4 6 1012.5 - 11.8
24/07:30am 24.7 27.4 20.3 76 2.9 W 6 7 3 4 1012.5 - 11.8
24/07:00am 24.2 26.7 20.2 78 2.6 WSW 7 11 4 6 1012.6 - 11.8
24/06:30am 24.5 26.5 19.1 72 3.5 SE 7 11 4 6 1011.8 - 11.8
24/06:00am 24.0 26.1 20.2 79 2.5 NE 9 13 5 7 1011.5 1009.0 11.8
24/05:30am 24.2 25.1 20.1 78 2.7 ENE 15 20 8 11 1011.0 - 11.8
24/05:00am 23.9 24.6 20.4 81 2.3 NE 17 22 9 12 1010.8 - 11.8
24/04:30am 23.6 23.3 20.4 82 2.1 E 22 35 12 19 1010.8 - 11.6
24/04:00am 23.1 24.7 20.7 86 1.6 E 13 24 7 13 1011.8 - 4.4
24/03:30am 23.8 25.4 20.8 83 2.0 N 13 17 7 9 1011.8 - 1.8
24/03:00am 25.7 26.1 20.6 73 3.4 N 19 22 10 12 1011.2 - 1.8
24/02:30am 25.7 28.4 20.3 72 3.6 SSW 6 11 3 6 1010.8 - 1.8
24/02:00am 25.9 26.2 19.5 68 4.2 SW 17 28 9 15 1010.7 - 1.8
24/01:30am 24.7 25.0 20.3 76 2.9 SSW 19 24 10 13 1010.9 - 1.8
24/01:00am 26.5 26.3 19.3 64 4.7 SSW 19 30 10 16 1011.8 - 1.6
24/12:30am 28.5 26.2 17.6 51 7.0 S 26 35 14 19 1011.5 - 1.6
24/12:00am 27.7 27.5 18.6 57 5.9 NW 17 20 9 11 1009.9 1007.3 1.6
 
Date/Time
CST
Temp
°C
App
Temp
°C
Dew
Point
Rel
Hum
%
Delta-T
°C
Wind Press
QNH
hPa
Press
MSL
hPa
Rain
since 9 am
mm
Dir
 
Spd
km/h
Gust
km/h
Spd
kts
Gust
kts
23/11:30pm 26.1 29.3 21.3 75 3.2 WNW 6 11 3 6 1010.0 - 1.4
23/11:00pm 25.9 27.8 19.8 69 4.0 ESE 9 13 5 7 1010.6 - 1.2
23/10:30pm 25.7 23.1 18.7 65 4.5 S 30 39 16 21 1011.2 - 0.6
23/10:21pm 25.9 23.0 18.8 65 4.6 S 32 43 17 23 1011.4 - 0.6
23/10:03pm 31.0 28.0 16.9 42 9.0 SW 28 50 15 27 1011.1 - 0.4
23/10:00pm 31.4 29.0 16.5 40 9.5 SSW 24 39 13 21 1011.0 - 0.4
23/09:30pm 30.6 28.9 17.2 44 8.6 NNE 22 44 12 24 1009.2 - 0.2
23/09:11pm 30.1 24.2 16.6 44 8.6 NE 43 63 23 34 1009.5 - 0.0
23/09:00pm 29.0 27.8 18.4 52 6.9 NW 22 32 12 17 1010.2 - 0.0
23/08:30pm 32.9 34.0 15.5 35 11.0 ENE 4 15 2 8 1008.9 - 0.0
23/08:00pm 31.9 28.7 16.2 38 10.0 N 28 39 15 21 1008.7 - 0.0
23/07:44pm 31.7 28.2 16.5 40 9.7 NW 30 48 16 26 1008.7 - 0.0
23/07:30pm 34.0 33.3 16.4 35 11.3 WNW 15 26 8 14 1008.0 - 0.0
23/07:00pm 36.4 37.0 15.2 28 13.5 SSE 6 20 3 11 1007.7 - 0.0
23/06:30pm 36.8 36.5 15.4 28 13.7 E 11 17 6 9 1006.9 - 0.0
23/06:00pm 38.8 37.4 14.6 24 15.4 ENE 15 24 8 13 1006.7 1004.1 0.0
23/05:30pm 39.6 40.0 15.2 23 15.7 NNW 7 15 4 8 1006.6 - 0.0
23/05:00pm 40.4 41.1 16.0 24 15.9 SW 7 13 4 7 1006.3 - 0.0
23/04:30pm 40.2 40.6 15.4 23 16.0 SSW 7 15 4 8 1006.7 - 0.0
23/04:00pm 40.4 39.5 14.8 22 16.4 SW 13 26 7 14 1007.2 - 0.0
23/03:30pm 41.0 40.7 14.4 21 17.0 SW 9 19 5 10 1007.6 - 0.0
23/03:00pm 40.2 39.6 14.5 22 16.4 NNW 11 17 6 9 1008.1 1005.6 0.0
23/02:30pm 39.0 39.4 14.7 23 15.5 S 6 11 3 6 1008.6 - 0.0
23/02:00pm 39.6 37.9 13.5 21 16.4 NNE 15 20 8 11 1009.1 - 0.0
23/01:30pm 39.0 37.1 13.0 21 16.2 NW 15 24 8 13 1009.5 - 0.0
23/01:00pm 39.2 37.0 12.0 19 16.7 NW 15 24 8 13 1010.0 - 0.0
23/12:30pm 38.5 36.7 12.1 20 16.2 WNW 13 22 7 12 1010.5 - 0.0
23/12:00pm 37.9 36.8 13.1 22 15.4 NNE 11 20 6 11 1011.1 1008.6 0.0
23/11:30am 37.2 36.6 13.6 24 14.7 WSW 9 20 5 11 1011.4 - 0.0
23/11:00am 37.1 35.8 14.9 26 14.1 NNE 15 24 8 13 1011.9 - 0.0

Other Formats:

Comma delimited format used in spreadsheet applications
http://www.bom.gov.au/fwo/IDD60801/IDD60801.95322.axf

JavaScript Object Notation format (JSON) in row-major order
http://www.bom.gov.au/fwo/IDD60801/IDD60801.95322.json